Aberdeen, North Carolina
Current Conditions -  °F | °C
As of 4:55 PM on Wednesday 28 Jan 2015 (Local Time) from KSOP Reporting Station
Clear Clear  
Wind Chill:   Ceiling: Unl
Heat Index:   Visibility: 10mi
Dew Point: -13°   Wind: 5mph
Humidity: 23%   Direction: 330°NNW
Pressure: 30.25"   Gusts: NA
Location:  35.13°N, 79.43°W
Report Text: KSOP 282155Z AUTO 33004KT 10SM CLR 07/M13 A3025 RMK AO1
Loading
Personal Weather Stations






























Interactive Weather Map New forecast layout! Learn more

10-Day Weather Forecast

Advertisements
Track Severe Weather on mobile